sensor_id;sensor_type;location;lat;lon;timestamp;P1;durP1;ratioP1;P2;durP2;ratioP2
66727;SDS011;53641;44.274;19.890;2022-07-10T00:00:04;1.73;;;0.90;;
66727;SDS011;53641;44.274;19.890;2022-07-10T00:02:32;3.17;;;1.08;;
66727;SDS011;53641;44.274;19.890;2022-07-10T00:04:58;2.47;;;1.00;;
66727;SDS011;53641;44.274;19.890;2022-07-10T00:07:24;2.05;;;0.88;;
66727;SDS011;53641;44.274;19.890;2022-07-10T00:09:49;5.60;;;1.17;;
66727;SDS011;53641;44.274;19.890;2022-07-10T00:12:15;1.73;;;0.90;;
66727;SDS011;53641;44.274;19.890;2022-07-10T00:14:41;2.75;;;0.82;;
66727;SDS011;53641;44.274;19.890;2022-07-10T00:17:07;4.45;;;1.00;;
66727;SDS011;53641;44.274;19.890;2022-07-10T00:19:32;2.15;;;0.80;;
66727;SDS011;53641;44.274;19.890;2022-07-10T00:21:58;4.88;;;1.30;;
66727;SDS011;53641;44.274;19.890;2022-07-10T00:24:24;1.98;;;0.82;;
66727;SDS011;53641;44.274;19.890;2022-07-10T00:26:50;3.30;;;1.20;;
66727;SDS011;53641;44.274;19.890;2022-07-10T00:29:15;1.50;;;0.88;;
66727;SDS011;53641;44.274;19.890;2022-07-10T00:31:41;4.63;;;0.93;;
66727;SDS011;53641;44.274;19.890;2022-07-10T00:34:07;3.85;;;0.80;;
66727;SDS011;53641;44.274;19.890;2022-07-10T00:36:33;4.05;;;1.02;;
66727;SDS011;53641;44.274;19.890;2022-07-10T00:38:58;3.63;;;0.90;;
66727;SDS011;53641;44.274;19.890;2022-07-10T00:41:24;2.65;;;1.00;;
66727;SDS011;53641;44.274;19.890;2022-07-10T00:43:51;3.08;;;0.77;;
66727;SDS011;53641;44.274;19.890;2022-07-10T00:46:17;7.68;;;1.00;;
66727;SDS011;53641;44.274;19.890;2022-07-10T00:48:45;4.03;;;1.40;;
66727;SDS011;53641;44.274;19.890;2022-07-10T00:51:14;2.03;;;0.75;;
66727;SDS011;53641;44.274;19.890;2022-07-10T00:53:42;2.65;;;0.90;;
66727;SDS011;53641;44.274;19.890;2022-07-10T00:56:10;2.67;;;1.02;;
66727;SDS011;53641;44.274;19.890;2022-07-10T00:58:37;3.63;;;0.93;;
66727;SDS011;53641;44.274;19.890;2022-07-10T01:01:04;4.20;;;1.13;;
66727;SDS011;53641;44.274;19.890;2022-07-10T01:03:30;3.17;;;0.80;;
66727;SDS011;53641;44.274;19.890;2022-07-10T01:05:56;4.00;;;0.85;;
66727;SDS011;53641;44.274;19.890;2022-07-10T01:08:23;3.30;;;0.85;;
66727;SDS011;53641;44.274;19.890;2022-07-10T01:10:49;1.27;;;0.80;;
66727;SDS011;53641;44.274;19.890;2022-07-10T01:13:14;2.83;;;1.02;;
66727;SDS011;53641;44.274;19.890;2022-07-10T01:15:40;2.88;;;0.88;;
66727;SDS011;53641;44.274;19.890;2022-07-10T01:18:07;2.25;;;0.90;;
66727;SDS011;53641;44.274;19.890;2022-07-10T01:20:32;1.48;;;0.88;;
66727;SDS011;53641;44.274;19.890;2022-07-10T01:22:59;2.08;;;0.88;;
66727;SDS011;53641;44.274;19.890;2022-07-10T01:25:25;5.20;;;0.98;;
66727;SDS011;53641;44.274;19.890;2022-07-10T01:27:51;1.85;;;0.85;;
66727;SDS011;53641;44.274;19.890;2022-07-10T01:30:21;2.67;;;0.80;;
66727;SDS011;53641;44.274;19.890;2022-07-10T01:32:46;2.15;;;1.20;;
66727;SDS011;53641;44.274;19.890;2022-07-10T01:35:13;3.78;;;1.10;;
66727;SDS011;53641;44.274;19.890;2022-07-10T01:37:39;2.90;;;0.70;;
66727;SDS011;53641;44.274;19.890;2022-07-10T01:40:06;2.97;;;1.20;;
66727;SDS011;53641;44.274;19.890;2022-07-10T01:42:33;3.55;;;0.73;;
66727;SDS011;53641;44.274;19.890;2022-07-10T01:44:59;2.50;;;1.00;;
66727;SDS011;53641;44.274;19.890;2022-07-10T01:47:25;4.57;;;1.15;;
66727;SDS011;53641;44.274;19.890;2022-07-10T01:49:52;1.98;;;0.73;;
66727;SDS011;53641;44.274;19.890;2022-07-10T01:52:19;2.25;;;1.05;;
66727;SDS011;53641;44.274;19.890;2022-07-10T01:54:45;1.38;;;0.80;;
66727;SDS011;53641;44.274;19.890;2022-07-10T01:57:11;1.65;;;1.00;;
66727;SDS011;53641;44.274;19.890;2022-07-10T01:59:38;2.78;;;0.70;;
66727;SDS011;53641;44.274;19.890;2022-07-10T02:02:04;4.22;;;1.00;;
66727;SDS011;53641;44.274;19.890;2022-07-10T02:04:30;3.33;;;0.82;;
66727;SDS011;53641;44.274;19.890;2022-07-10T02:07:06;1.42;;;0.90;;
66727;SDS011;53641;44.274;19.890;2022-07-10T02:09:32;4.10;;;1.23;;
66727;SDS011;53641;44.274;19.890;2022-07-10T02:11:58;3.08;;;0.90;;
66727;SDS011;53641;44.274;19.890;2022-07-10T02:14:23;2.28;;;1.30;;
66727;SDS011;53641;44.274;19.890;2022-07-10T02:16:49;3.22;;;1.00;;
66727;SDS011;53641;44.274;19.890;2022-07-10T02:19:15;1.83;;;1.30;;
66727;SDS011;53641;44.274;19.890;2022-07-10T02:21:41;2.33;;;0.80;;
66727;SDS011;53641;44.274;19.890;2022-07-10T02:24:07;2.88;;;0.80;;
66727;SDS011;53641;44.274;19.890;2022-07-10T02:26:32;5.32;;;0.90;;
66727;SDS011;53641;44.274;19.890;2022-07-10T02:28:58;6.50;;;0.90;;
66727;SDS011;53641;44.274;19.890;2022-07-10T02:31:24;5.55;;;1.10;;
66727;SDS011;53641;44.274;19.890;2022-07-10T02:33:50;3.72;;;1.13;;
66727;SDS011;53641;44.274;19.890;2022-07-10T02:36:19;1.60;;;0.90;;
66727;SDS011;53641;44.274;19.890;2022-07-10T02:38:44;3.63;;;1.10;;
66727;SDS011;53641;44.274;19.890;2022-07-10T02:41:10;2.35;;;1.20;;
66727;SDS011;53641;44.274;19.890;2022-07-10T02:43:36;3.00;;;1.08;;
66727;SDS011;53641;44.274;19.890;2022-07-10T02:46:02;2.65;;;0.82;;
66727;SDS011;53641;44.274;19.890;2022-07-10T02:48:28;3.13;;;0.90;;
66727;SDS011;53641;44.274;19.890;2022-07-10T02:50:54;3.85;;;1.00;;
66727;SDS011;53641;44.274;19.890;2022-07-10T02:53:20;5.45;;;1.08;;
66727;SDS011;53641;44.274;19.890;2022-07-10T02:55:45;2.10;;;1.02;;
66727;SDS011;53641;44.274;19.890;2022-07-10T02:58:11;4.20;;;1.00;;
66727;SDS011;53641;44.274;19.890;2022-07-10T03:00:37;2.25;;;1.63;;
66727;SDS011;53641;44.274;19.890;2022-07-10T03:03:03;4.95;;;1.05;;
66727;SDS011;53641;44.274;19.890;2022-07-10T03:05:28;5.28;;;1.52;;
66727;SDS011;53641;44.274;19.890;2022-07-10T03:07:54;1.83;;;0.88;;
66727;SDS011;53641;44.274;19.890;2022-07-10T03:10:20;2.00;;;1.00;;
66727;SDS011;53641;44.274;19.890;2022-07-10T03:12:46;1.55;;;0.90;;
66727;SDS011;53641;44.274;19.890;2022-07-10T03:15:12;2.03;;;1.00;;
66727;SDS011;53641;44.274;19.890;2022-07-10T03:17:38;2.03;;;0.98;;
66727;SDS011;53641;44.274;19.890;2022-07-10T03:20:05;2.25;;;1.30;;
66727;SDS011;53641;44.274;19.890;2022-07-10T03:22:33;4.75;;;1.00;;
66727;SDS011;53641;44.274;19.890;2022-07-10T03:24:58;2.90;;;1.10;;
66727;SDS011;53641;44.274;19.890;2022-07-10T03:27:24;2.17;;;0.70;;
66727;SDS011;53641;44.274;19.890;2022-07-10T03:29:50;2.38;;;0.95;;
66727;SDS011;53641;44.274;19.890;2022-07-10T03:32:16;2.55;;;1.60;;
66727;SDS011;53641;44.274;19.890;2022-07-10T03:34:42;4.43;;;1.05;;
66727;SDS011;53641;44.274;19.890;2022-07-10T03:37:07;4.18;;;0.90;;
66727;SDS011;53641;44.274;19.890;2022-07-10T03:39:33;1.88;;;0.88;;
66727;SDS011;53641;44.274;19.890;2022-07-10T03:41:59;5.05;;;1.08;;
66727;SDS011;53641;44.274;19.890;2022-07-10T03:44:25;2.60;;;0.95;;
66727;SDS011;53641;44.274;19.890;2022-07-10T03:46:51;3.00;;;1.00;;
66727;SDS011;53641;44.274;19.890;2022-07-10T03:49:16;2.63;;;1.17;;
66727;SDS011;53641;44.274;19.890;2022-07-10T03:51:42;2.67;;;1.05;;
66727;SDS011;53641;44.274;19.890;2022-07-10T03:54:08;5.03;;;0.90;;
66727;SDS011;53641;44.274;19.890;2022-07-10T03:56:34;1.27;;;0.80;;
66727;SDS011;53641;44.274;19.890;2022-07-10T03:59:19;5.97;;;1.20;;
66727;SDS011;53641;44.274;19.890;2022-07-10T04:01:45;6.13;;;1.02;;
66727;SDS011;53641;44.274;19.890;2022-07-10T04:04:11;3.92;;;1.08;;
66727;SDS011;53641;44.274;19.890;2022-07-10T04:06:37;1.67;;;0.90;;
66727;SDS011;53641;44.274;19.890;2022-07-10T04:09:04;2.10;;;1.00;;
66727;SDS011;53641;44.274;19.890;2022-07-10T04:11:29;4.05;;;1.08;;
66727;SDS011;53641;44.274;19.890;2022-07-10T04:13:55;8.73;;;1.30;;
66727;SDS011;53641;44.274;19.890;2022-07-10T04:16:21;1.58;;;0.98;;
66727;SDS011;53641;44.274;19.890;2022-07-10T04:18:47;5.47;;;1.40;;
66727;SDS011;53641;44.274;19.890;2022-07-10T04:21:13;6.07;;;1.00;;
66727;SDS011;53641;44.274;19.890;2022-07-10T04:23:39;1.70;;;1.00;;
66727;SDS011;53641;44.274;19.890;2022-07-10T04:26:05;2.67;;;1.13;;
66727;SDS011;53641;44.274;19.890;2022-07-10T04:28:31;3.72;;;1.10;;
66727;SDS011;53641;44.274;19.890;2022-07-10T04:30:57;3.78;;;1.08;;
66727;SDS011;53641;44.274;19.890;2022-07-10T04:33:23;2.88;;;0.98;;
66727;SDS011;53641;44.274;19.890;2022-07-10T04:35:50;7.65;;;1.20;;
66727;SDS011;53641;44.274;19.890;2022-07-10T04:38:15;3.30;;;1.20;;
66727;SDS011;53641;44.274;19.890;2022-07-10T04:40:41;2.70;;;1.13;;
66727;SDS011;53641;44.274;19.890;2022-07-10T04:43:07;2.28;;;1.02;;
66727;SDS011;53641;44.274;19.890;2022-07-10T04:45:35;3.60;;;1.15;;
66727;SDS011;53641;44.274;19.890;2022-07-10T04:48:02;4.70;;;1.23;;
66727;SDS011;53641;44.274;19.890;2022-07-10T04:50:29;1.90;;;1.00;;
66727;SDS011;53641;44.274;19.890;2022-07-10T04:52:55;3.58;;;1.10;;
66727;SDS011;53641;44.274;19.890;2022-07-10T04:55:22;3.22;;;1.00;;
66727;SDS011;53641;44.274;19.890;2022-07-10T04:57:47;5.90;;;1.23;;
66727;SDS011;53641;44.274;19.890;2022-07-10T05:00:14;3.15;;;1.10;;
66727;SDS011;53641;44.274;19.890;2022-07-10T05:02:40;5.80;;;1.20;;
66727;SDS011;53641;44.274;19.890;2022-07-10T05:05:06;2.85;;;1.13;;
66727;SDS011;53641;44.274;19.890;2022-07-10T05:07:38;3.35;;;1.17;;
66727;SDS011;53641;44.274;19.890;2022-07-10T05:10:04;7.93;;;1.30;;
66727;SDS011;53641;44.274;19.890;2022-07-10T05:12:33;4.20;;;1.30;;
66727;SDS011;53641;44.274;19.890;2022-07-10T05:14:59;4.88;;;1.00;;
66727;SDS011;53641;44.274;19.890;2022-07-10T05:17:25;2.78;;;1.42;;
66727;SDS011;53641;44.274;19.890;2022-07-10T05:19:53;2.75;;;1.27;;
66727;SDS011;53641;44.274;19.890;2022-07-10T05:22:20;4.40;;;1.30;;
66727;SDS011;53641;44.274;19.890;2022-07-10T05:24:46;2.28;;;1.25;;
66727;SDS011;53641;44.274;19.890;2022-07-10T05:27:12;3.33;;;1.27;;
66727;SDS011;53641;44.274;19.890;2022-07-10T05:29:38;1.77;;;1.00;;
66727;SDS011;53641;44.274;19.890;2022-07-10T05:32:04;3.40;;;1.00;;
66727;SDS011;53641;44.274;19.890;2022-07-10T05:34:30;1.95;;;1.00;;
66727;SDS011;53641;44.274;19.890;2022-07-10T05:36:56;1.83;;;0.95;;
66727;SDS011;53641;44.274;19.890;2022-07-10T05:39:21;2.03;;;1.10;;
66727;SDS011;53641;44.274;19.890;2022-07-10T05:41:51;5.03;;;1.20;;
66727;SDS011;53641;44.274;19.890;2022-07-10T05:44:17;4.53;;;1.08;;
66727;SDS011;53641;44.274;19.890;2022-07-10T05:46:44;2.78;;;1.52;;
66727;SDS011;53641;44.274;19.890;2022-07-10T05:49:11;4.20;;;1.83;;
66727;SDS011;53641;44.274;19.890;2022-07-10T05:51:37;4.10;;;1.27;;
66727;SDS011;53641;44.274;19.890;2022-07-10T05:54:03;2.65;;;1.10;;
66727;SDS011;53641;44.274;19.890;2022-07-10T05:56:29;3.65;;;1.20;;
66727;SDS011;53641;44.274;19.890;2022-07-10T05:58:55;3.65;;;2.00;;
66727;SDS011;53641;44.274;19.890;2022-07-10T06:01:21;3.75;;;1.20;;
66727;SDS011;53641;44.274;19.890;2022-07-10T06:03:47;2.90;;;1.35;;
66727;SDS011;53641;44.274;19.890;2022-07-10T06:06:13;1.77;;;0.90;;
66727;SDS011;53641;44.274;19.890;2022-07-10T06:08:40;4.95;;;1.10;;
66727;SDS011;53641;44.274;19.890;2022-07-10T06:11:07;1.20;;;0.95;;
66727;SDS011;53641;44.274;19.890;2022-07-10T06:13:33;6.63;;;1.20;;
66727;SDS011;53641;44.274;19.890;2022-07-10T06:15:59;2.97;;;1.10;;
66727;SDS011;53641;44.274;19.890;2022-07-10T06:18:25;3.90;;;1.00;;
66727;SDS011;53641;44.274;19.890;2022-07-10T06:20:51;7.90;;;1.08;;
66727;SDS011;53641;44.274;19.890;2022-07-10T06:23:17;10.85;;;1.35;;
66727;SDS011;53641;44.274;19.890;2022-07-10T06:25:43;4.20;;;0.85;;
66727;SDS011;53641;44.274;19.890;2022-07-10T06:28:08;4.03;;;1.13;;
66727;SDS011;53641;44.274;19.890;2022-07-10T06:30:34;6.03;;;1.05;;
66727;SDS011;53641;44.274;19.890;2022-07-10T06:33:00;3.72;;;1.20;;
66727;SDS011;53641;44.274;19.890;2022-07-10T06:35:26;4.03;;;0.95;;
66727;SDS011;53641;44.274;19.890;2022-07-10T06:37:52;3.40;;;0.63;;
66727;SDS011;53641;44.274;19.890;2022-07-10T06:40:20;2.55;;;0.80;;
66727;SDS011;53641;44.274;19.890;2022-07-10T06:42:45;4.50;;;0.93;;
66727;SDS011;53641;44.274;19.890;2022-07-10T06:45:11;2.65;;;0.75;;
66727;SDS011;53641;44.274;19.890;2022-07-10T06:47:37;4.05;;;0.93;;
66727;SDS011;53641;44.274;19.890;2022-07-10T06:50:20;4.68;;;1.33;;
66727;SDS011;53641;44.274;19.890;2022-07-10T06:52:48;4.40;;;1.08;;
66727;SDS011;53641;44.274;19.890;2022-07-10T06:55:15;6.85;;;1.20;;
66727;SDS011;53641;44.274;19.890;2022-07-10T06:57:43;3.10;;;0.95;;
66727;SDS011;53641;44.274;19.890;2022-07-10T07:00:09;3.55;;;0.95;;
66727;SDS011;53641;44.274;19.890;2022-07-10T07:02:36;2.85;;;0.85;;
66727;SDS011;53641;44.274;19.890;2022-07-10T07:05:02;2.50;;;0.75;;
66727;SDS011;53641;44.274;19.890;2022-07-10T07:07:28;1.50;;;0.77;;
66727;SDS011;53641;44.274;19.890;2022-07-10T07:09:54;5.28;;;0.90;;
66727;SDS011;53641;44.274;19.890;2022-07-10T07:12:20;3.03;;;1.17;;
66727;SDS011;53641;44.274;19.890;2022-07-10T07:14:46;2.13;;;1.05;;
66727;SDS011;53641;44.274;19.890;2022-07-10T07:17:15;1.80;;;0.90;;
66727;SDS011;53641;44.274;19.890;2022-07-10T07:19:49;4.78;;;0.90;;
66727;SDS011;53641;44.274;19.890;2022-07-10T07:22:35;3.40;;;1.10;;
66727;SDS011;53641;44.274;19.890;2022-07-10T07:25:20;1.52;;;0.80;;
66727;SDS011;53641;44.274;19.890;2022-07-10T07:27:46;1.50;;;0.88;;
66727;SDS011;53641;44.274;19.890;2022-07-10T07:30:13;1.02;;;0.77;;
66727;SDS011;53641;44.274;19.890;2022-07-10T07:32:40;3.63;;;1.00;;
66727;SDS011;53641;44.274;19.890;2022-07-10T07:35:07;1.15;;;1.00;;
66727;SDS011;53641;44.274;19.890;2022-07-10T07:37:34;1.23;;;0.88;;
66727;SDS011;53641;44.274;19.890;2022-07-10T07:40:03;1.70;;;1.00;;
66727;SDS011;53641;44.274;19.890;2022-07-10T07:42:30;2.75;;;1.10;;
66727;SDS011;53641;44.274;19.890;2022-07-10T07:44:56;1.60;;;1.05;;
66727;SDS011;53641;44.274;19.890;2022-07-10T07:47:21;4.28;;;1.15;;
66727;SDS011;53641;44.274;19.890;2022-07-10T07:49:47;2.60;;;1.30;;
66727;SDS011;53641;44.274;19.890;2022-07-10T07:52:13;3.78;;;1.38;;
66727;SDS011;53641;44.274;19.890;2022-07-10T07:54:39;1.63;;;1.30;;
66727;SDS011;53641;44.274;19.890;2022-07-10T07:57:05;1.88;;;1.20;;
66727;SDS011;53641;44.274;19.890;2022-07-10T07:59:31;2.35;;;1.50;;
66727;SDS011;53641;44.274;19.890;2022-07-10T08:01:57;2.25;;;1.55;;
66727;SDS011;53641;44.274;19.890;2022-07-10T08:04:22;3.45;;;1.67;;
66727;SDS011;53641;44.274;19.890;2022-07-10T08:06:48;3.08;;;1.75;;
66727;SDS011;53641;44.274;19.890;2022-07-10T08:09:17;2.17;;;1.48;;
66727;SDS011;53641;44.274;19.890;2022-07-10T08:11:43;3.40;;;1.67;;
66727;SDS011;53641;44.274;19.890;2022-07-10T08:14:09;3.53;;;1.30;;
66727;SDS011;53641;44.274;19.890;2022-07-10T08:16:34;4.85;;;1.90;;
66727;SDS011;53641;44.274;19.890;2022-07-10T08:19:00;1.92;;;1.38;;
66727;SDS011;53641;44.274;19.890;2022-07-10T08:21:26;2.13;;;1.25;;
66727;SDS011;53641;44.274;19.890;2022-07-10T08:23:52;5.28;;;1.80;;
66727;SDS011;53641;44.274;19.890;2022-07-10T08:26:18;3.97;;;1.30;;
66727;SDS011;53641;44.274;19.890;2022-07-10T08:28:44;3.10;;;1.63;;
66727;SDS011;53641;44.274;19.890;2022-07-10T08:31:10;2.13;;;0.80;;
66727;SDS011;53641;44.274;19.890;2022-07-10T08:33:36;1.30;;;1.08;;
66727;SDS011;53641;44.274;19.890;2022-07-10T08:36:02;2.33;;;0.80;;
66727;SDS011;53641;44.274;19.890;2022-07-10T08:38:28;2.55;;;1.00;;
66727;SDS011;53641;44.274;19.890;2022-07-10T08:40:54;2.13;;;0.60;;
66727;SDS011;53641;44.274;19.890;2022-07-10T08:43:22;1.55;;;0.70;;
66727;SDS011;53641;44.274;19.890;2022-07-10T08:45:48;2.42;;;0.60;;
66727;SDS011;53641;44.274;19.890;2022-07-10T08:48:16;3.30;;;0.80;;
66727;SDS011;53641;44.274;19.890;2022-07-10T08:50:50;2.75;;;0.80;;
66727;SDS011;53641;44.274;19.890;2022-07-10T08:53:22;5.97;;;1.27;;
66727;SDS011;53641;44.274;19.890;2022-07-10T08:55:53;1.80;;;0.90;;
66727;SDS011;53641;44.274;19.890;2022-07-10T08:58:19;7.30;;;1.20;;
66727;SDS011;53641;44.274;19.890;2022-07-10T09:00:46;2.05;;;0.75;;
66727;SDS011;53641;44.274;19.890;2022-07-10T09:03:12;2.33;;;0.88;;
66727;SDS011;53641;44.274;19.890;2022-07-10T09:05:38;3.95;;;0.77;;
66727;SDS011;53641;44.274;19.890;2022-07-10T09:08:04;1.63;;;0.73;;
66727;SDS011;53641;44.274;19.890;2022-07-10T09:10:45;2.22;;;1.00;;
66727;SDS011;53641;44.274;19.890;2022-07-10T09:13:12;4.57;;;0.82;;
66727;SDS011;53641;44.274;19.890;2022-07-10T09:15:37;2.50;;;0.90;;
66727;SDS011;53641;44.274;19.890;2022-07-10T09:18:03;1.30;;;1.20;;
66727;SDS011;53641;44.274;19.890;2022-07-10T09:20:34;2.78;;;1.25;;
66727;SDS011;53641;44.274;19.890;2022-07-10T09:23:18;3.10;;;1.42;;
66727;SDS011;53641;44.274;19.890;2022-07-10T09:25:45;1.50;;;1.20;;
66727;SDS011;53641;44.274;19.890;2022-07-10T09:28:13;6.07;;;1.10;;
66727;SDS011;53641;44.274;19.890;2022-07-10T09:30:41;4.05;;;0.70;;
66727;SDS011;53641;44.274;19.890;2022-07-10T09:33:17;2.60;;;1.13;;
66727;SDS011;53641;44.274;19.890;2022-07-10T09:36:08;1.88;;;0.90;;
66727;SDS011;53641;44.274;19.890;2022-07-10T09:38:48;3.70;;;0.70;;
66727;SDS011;53641;44.274;19.890;2022-07-10T09:41:20;1.42;;;0.70;;
66727;SDS011;53641;44.274;19.890;2022-07-10T09:43:51;1.55;;;0.80;;
66727;SDS011;53641;44.274;19.890;2022-07-10T09:46:27;2.38;;;0.60;;
66727;SDS011;53641;44.274;19.890;2022-07-10T09:49:07;3.50;;;0.70;;
66727;SDS011;53641;44.274;19.890;2022-07-10T09:51:34;3.30;;;0.65;;
66727;SDS011;53641;44.274;19.890;2022-07-10T09:54:05;1.75;;;0.47;;
66727;SDS011;53641;44.274;19.890;2022-07-10T09:56:33;1.25;;;0.40;;
66727;SDS011;53641;44.274;19.890;2022-07-10T09:59:08;3.17;;;0.60;;
66727;SDS011;53641;44.274;19.890;2022-07-10T10:01:35;1.90;;;0.50;;
66727;SDS011;53641;44.274;19.890;2022-07-10T10:04:03;0.90;;;0.57;;
66727;SDS011;53641;44.274;19.890;2022-07-10T10:06:29;1.60;;;0.73;;
66727;SDS011;53641;44.274;19.890;2022-07-10T10:08:58;1.17;;;0.73;;
66727;SDS011;53641;44.274;19.890;2022-07-10T10:11:25;1.98;;;0.68;;
66727;SDS011;53641;44.274;19.890;2022-07-10T10:13:52;1.30;;;0.70;;
66727;SDS011;53641;44.274;19.890;2022-07-10T10:16:21;3.20;;;0.90;;
66727;SDS011;53641;44.274;19.890;2022-07-10T10:18:47;1.75;;;0.50;;
66727;SDS011;53641;44.274;19.890;2022-07-10T10:21:35;2.47;;;0.70;;
66727;SDS011;53641;44.274;19.890;2022-07-10T10:24:02;1.52;;;0.77;;
66727;SDS011;53641;44.274;19.890;2022-07-10T10:26:28;2.88;;;0.75;;
66727;SDS011;53641;44.274;19.890;2022-07-10T10:28:56;2.50;;;0.85;;
66727;SDS011;53641;44.274;19.890;2022-07-10T10:31:24;1.13;;;0.60;;
66727;SDS011;53641;44.274;19.890;2022-07-10T10:33:55;1.17;;;0.60;;
66727;SDS011;53641;44.274;19.890;2022-07-10T10:36:43;1.52;;;0.82;;
66727;SDS011;53641;44.274;19.890;2022-07-10T10:39:15;3.00;;;0.82;;
66727;SDS011;53641;44.274;19.890;2022-07-10T10:41:52;2.13;;;0.60;;
66727;SDS011;53641;44.274;19.890;2022-07-10T10:44:19;1.15;;;0.50;;
66727;SDS011;53641;44.274;19.890;2022-07-10T10:46:53;0.82;;;0.50;;
66727;SDS011;53641;44.274;19.890;2022-07-10T10:49:26;1.48;;;0.80;;
66727;SDS011;53641;44.274;19.890;2022-07-10T10:52:12;0.50;;;0.50;;
66727;SDS011;53641;44.274;19.890;2022-07-10T10:55:00;1.02;;;0.80;;
66727;SDS011;53641;44.274;19.890;2022-07-10T10:57:35;2.20;;;0.60;;
66727;SDS011;53641;44.274;19.890;2022-07-10T11:00:05;1.25;;;0.50;;
66727;SDS011;53641;44.274;19.890;2022-07-10T11:02:36;0.88;;;0.60;;
66727;SDS011;53641;44.274;19.890;2022-07-10T11:08:07;2.30;;;0.57;;
66727;SDS011;53641;44.274;19.890;2022-07-10T11:10:37;0.90;;;0.70;;
66727;SDS011;53641;44.274;19.890;2022-07-10T11:13:05;1.55;;;0.70;;
66727;SDS011;53641;44.274;19.890;2022-07-10T11:15:33;0.50;;;0.50;;
66727;SDS011;53641;44.274;19.890;2022-07-10T11:18:08;2.25;;;0.57;;
66727;SDS011;53641;44.274;19.890;2022-07-10T11:20:36;0.90;;;0.55;;
66727;SDS011;53641;44.274;19.890;2022-07-10T11:23:26;1.10;;;0.70;;
66727;SDS011;53641;44.274;19.890;2022-07-10T11:26:24;0.60;;;0.50;;
66727;SDS011;53641;44.274;19.890;2022-07-10T11:29:09;0.65;;;0.40;;
66727;SDS011;53641;44.274;19.890;2022-07-10T11:31:35;0.57;;;0.50;;
66727;SDS011;53641;44.274;19.890;2022-07-10T11:34:09;0.63;;;0.50;;
66727;SDS011;53641;44.274;19.890;2022-07-10T11:36:38;0.75;;;0.60;;
66727;SDS011;53641;44.274;19.890;2022-07-10T11:39:05;1.10;;;0.60;;
66727;SDS011;53641;44.274;19.890;2022-07-10T11:41:32;0.43;;;0.43;;
66727;SDS011;53641;44.274;19.890;2022-07-10T11:44:02;3.17;;;0.80;;
66727;SDS011;53641;44.274;19.890;2022-07-10T11:46:29;0.50;;;0.50;;
66727;SDS011;53641;44.274;19.890;2022-07-10T11:48:56;0.82;;;0.45;;
66727;SDS011;53641;44.274;19.890;2022-07-10T11:51:24;2.17;;;0.70;;
66727;SDS011;53641;44.274;19.890;2022-07-10T11:54:01;2.97;;;0.45;;
66727;SDS011;53641;44.274;19.890;2022-07-10T11:56:30;2.50;;;0.60;;
66727;SDS011;53641;44.274;19.890;2022-07-10T11:59:08;1.42;;;0.60;;
66727;SDS011;53641;44.274;19.890;2022-07-10T12:01:35;1.35;;;0.55;;
66727;SDS011;53641;44.274;19.890;2022-07-10T12:04:07;0.55;;;0.50;;
66727;SDS011;53641;44.274;19.890;2022-07-10T12:06:35;1.95;;;0.43;;
66727;SDS011;53641;44.274;19.890;2022-07-10T12:09:03;1.00;;;0.40;;
66727;SDS011;53641;44.274;19.890;2022-07-10T12:11:30;1.15;;;0.50;;
66727;SDS011;53641;44.274;19.890;2022-07-10T12:14:27;2.22;;;0.70;;
66727;SDS011;53641;44.274;19.890;2022-07-10T12:16:50;0.50;;;0.50;;
66727;SDS011;53641;44.274;19.890;2022-07-10T12:19:18;0.95;;;0.50;;
66727;SDS011;53641;44.274;19.890;2022-07-10T12:21:46;1.60;;;0.70;;
66727;SDS011;53641;44.274;19.890;2022-07-10T12:24:13;0.75;;;0.50;;
66727;SDS011;53641;44.274;19.890;2022-07-10T12:26:42;0.80;;;0.60;;
66727;SDS011;53641;44.274;19.890;2022-07-10T12:29:19;1.17;;;0.65;;
66727;SDS011;53641;44.274;19.890;2022-07-10T12:31:46;2.47;;;0.60;;
66727;SDS011;53641;44.274;19.890;2022-07-10T12:34:14;2.28;;;0.93;;
66727;SDS011;53641;44.274;19.890;2022-07-10T12:36:50;2.92;;;0.63;;
66727;SDS011;53641;44.274;19.890;2022-07-10T12:39:18;1.25;;;0.70;;
66727;SDS011;53641;44.274;19.890;2022-07-10T12:41:58;1.40;;;0.70;;
66727;SDS011;53641;44.274;19.890;2022-07-10T12:44:33;2.78;;;0.60;;
66727;SDS011;53641;44.274;19.890;2022-07-10T12:47:01;1.83;;;0.70;;
66727;SDS011;53641;44.274;19.890;2022-07-10T12:49:57;1.52;;;0.70;;
66727;SDS011;53641;44.274;19.890;2022-07-10T12:52:26;1.05;;;0.70;;
66727;SDS011;53641;44.274;19.890;2022-07-10T12:55:14;1.20;;;0.60;;
66727;SDS011;53641;44.274;19.890;2022-07-10T12:57:53;0.73;;;0.63;;
66727;SDS011;53641;44.274;19.890;2022-07-10T13:00:30;0.80;;;0.60;;
66727;SDS011;53641;44.274;19.890;2022-07-10T13:03:05;1.45;;;0.70;;
66727;SDS011;53641;44.274;19.890;2022-07-10T13:05:38;5.38;;;0.75;;
66727;SDS011;53641;44.274;19.890;2022-07-10T13:08:06;0.60;;;0.60;;
66727;SDS011;53641;44.274;19.890;2022-07-10T13:10:33;1.60;;;0.80;;
66727;SDS011;53641;44.274;19.890;2022-07-10T13:12:59;0.85;;;0.65;;
66727;SDS011;53641;44.274;19.890;2022-07-10T13:15:26;0.85;;;0.55;;
66727;SDS011;53641;44.274;19.890;2022-07-10T13:17:52;1.30;;;0.73;;
66727;SDS011;53641;44.274;19.890;2022-07-10T13:20:18;1.40;;;0.60;;
66727;SDS011;53641;44.274;19.890;2022-07-10T13:22:44;0.90;;;0.70;;
66727;SDS011;53641;44.274;19.890;2022-07-10T13:25:09;1.67;;;0.70;;
66727;SDS011;53641;44.274;19.890;2022-07-10T13:27:35;2.03;;;0.65;;
66727;SDS011;53641;44.274;19.890;2022-07-10T13:30:03;1.67;;;0.60;;
66727;SDS011;53641;44.274;19.890;2022-07-10T13:32:29;1.63;;;0.63;;
66727;SDS011;53641;44.274;19.890;2022-07-10T13:34:54;2.15;;;0.80;;
66727;SDS011;53641;44.274;19.890;2022-07-10T13:37:23;0.80;;;0.60;;
66727;SDS011;53641;44.274;19.890;2022-07-10T13:39:49;2.22;;;0.65;;
66727;SDS011;53641;44.274;19.890;2022-07-10T13:42:17;3.00;;;1.10;;
66727;SDS011;53641;44.274;19.890;2022-07-10T13:44:43;1.40;;;0.70;;
66727;SDS011;53641;44.274;19.890;2022-07-10T13:47:09;3.45;;;0.60;;
66727;SDS011;53641;44.274;19.890;2022-07-10T13:49:37;1.13;;;0.65;;
66727;SDS011;53641;44.274;19.890;2022-07-10T13:52:06;0.88;;;0.70;;
66727;SDS011;53641;44.274;19.890;2022-07-10T13:54:31;1.50;;;0.70;;
66727;SDS011;53641;44.274;19.890;2022-07-10T13:56:57;3.50;;;0.70;;
66727;SDS011;53641;44.274;19.890;2022-07-10T13:59:23;1.40;;;0.73;;
66727;SDS011;53641;44.274;19.890;2022-07-10T14:01:49;1.50;;;0.82;;
66727;SDS011;53641;44.274;19.890;2022-07-10T14:04:15;3.92;;;0.90;;
66727;SDS011;53641;44.274;19.890;2022-07-10T14:06:41;0.65;;;0.65;;
66727;SDS011;53641;44.274;19.890;2022-07-10T14:09:07;2.15;;;0.60;;
66727;SDS011;53641;44.274;19.890;2022-07-10T14:11:32;0.85;;;0.70;;
66727;SDS011;53641;44.274;19.890;2022-07-10T14:13:59;2.10;;;0.85;;
66727;SDS011;53641;44.274;19.890;2022-07-10T14:16:26;1.85;;;0.80;;
66727;SDS011;53641;44.274;19.890;2022-07-10T14:18:52;1.13;;;0.60;;
66727;SDS011;53641;44.274;19.890;2022-07-10T14:21:19;1.38;;;0.70;;
66727;SDS011;53641;44.274;19.890;2022-07-10T14:23:52;1.25;;;0.60;;
66727;SDS011;53641;44.274;19.890;2022-07-10T14:26:18;0.50;;;0.50;;
66727;SDS011;53641;44.274;19.890;2022-07-10T14:28:43;1.70;;;0.70;;
66727;SDS011;53641;44.274;19.890;2022-07-10T14:31:09;1.33;;;0.90;;
66727;SDS011;53641;44.274;19.890;2022-07-10T14:33:35;1.00;;;0.70;;
66727;SDS011;53641;44.274;19.890;2022-07-10T14:36:02;1.02;;;0.77;;
66727;SDS011;53641;44.274;19.890;2022-07-10T14:38:28;3.35;;;0.90;;
66727;SDS011;53641;44.274;19.890;2022-07-10T14:40:54;1.83;;;0.80;;